createdAt,value
2018-12-04T00:01:22.556Z,99.90
2018-12-04T00:03:52.892Z,99.90
2018-12-04T00:06:23.203Z,99.90
2018-12-04T00:08:53.706Z,99.90
2018-12-04T00:11:24.145Z,99.90
2018-12-04T00:13:54.785Z,99.90
2018-12-04T00:16:25.233Z,99.90
2018-12-04T00:18:55.488Z,99.90
2018-12-04T00:21:25.779Z,99.90
2018-12-04T00:23:56.163Z,99.90
2018-12-04T00:26:26.361Z,99.90
2018-12-04T00:28:56.724Z,99.90
2018-12-04T00:31:27.070Z,99.90
2018-12-04T00:33:57.170Z,99.90
2018-12-04T00:36:27.431Z,99.90
2018-12-04T00:38:57.714Z,99.90
2018-12-04T00:41:28.028Z,99.90
2018-12-04T00:43:58.450Z,99.90
2018-12-04T00:46:28.622Z,99.90
2018-12-04T00:48:58.974Z,99.90
2018-12-04T00:51:29.428Z,99.90
2018-12-04T00:53:59.872Z,99.90
2018-12-04T00:56:30.045Z,99.90
2018-12-04T00:59:00.314Z,99.90
2018-12-04T01:01:30.712Z,99.90
2018-12-04T01:04:01.100Z,99.90
2018-12-04T01:06:31.360Z,99.90
2018-12-04T01:09:01.694Z,99.90
2018-12-04T01:11:32.208Z,99.90
2018-12-04T01:14:02.683Z,99.90
2018-12-04T01:16:32.869Z,99.90
2018-12-04T01:19:03.205Z,99.90
2018-12-04T01:21:33.513Z,99.90
2018-12-04T01:24:04.012Z,99.90
2018-12-04T01:26:34.338Z,99.90
2018-12-04T01:29:04.614Z,99.90
2018-12-04T01:31:35.087Z,99.90
2018-12-04T01:34:05.244Z,99.90
2018-12-04T01:36:35.587Z,99.90
2018-12-04T01:39:07.584Z,99.90
2018-12-04T01:41:37.953Z,99.90
2018-12-04T01:44:08.172Z,99.90
2018-12-04T01:46:38.630Z,99.90
2018-12-04T01:49:09.096Z,99.90
2018-12-04T01:51:39.364Z,99.90
2018-12-04T01:54:09.698Z,99.90
2018-12-04T01:56:40.179Z,99.90
2018-12-04T01:59:10.577Z,99.90
2018-12-04T02:01:40.784Z,99.90
2018-12-04T02:04:11.122Z,99.90
2018-12-04T02:06:41.422Z,99.90
2018-12-04T02:09:12.069Z,99.90
2018-12-04T02:11:42.478Z,99.90
2018-12-04T02:14:12.784Z,99.90
2018-12-04T02:16:43.094Z,99.90
2018-12-04T02:19:13.406Z,99.90
2018-12-04T02:21:43.586Z,99.90
2018-12-04T02:24:13.920Z,99.90
2018-12-04T02:26:44.245Z,99.90
2018-12-04T02:29:14.669Z,99.90
2018-12-04T02:31:44.838Z,99.90
2018-12-04T02:34:15.200Z,99.90
2018-12-04T02:36:45.702Z,99.90
2018-12-04T02:39:16.119Z,99.90
2018-12-04T02:41:46.227Z,99.90
2018-12-04T02:44:16.528Z,99.90
2018-12-04T02:46:46.814Z,99.90
2018-12-04T02:49:17.393Z,99.90
2018-12-04T02:51:47.501Z,99.90
2018-12-04T02:54:17.824Z,99.90
2018-12-04T02:56:48.212Z,99.90
2018-12-04T02:59:18.537Z,99.90
2018-12-04T03:01:48.942Z,99.90
2018-12-04T03:04:19.357Z,99.90
2018-12-04T03:06:49.570Z,99.90
2018-12-04T03:09:22.550Z,99.90
2018-12-04T03:11:52.693Z,99.90
2018-12-04T03:14:23.125Z,99.90
2018-12-04T03:16:53.374Z,99.90
2018-12-04T03:19:23.839Z,99.90
2018-12-04T03:21:54.002Z,99.90
2018-12-04T03:24:24.535Z,99.90
2018-12-04T03:26:55.243Z,99.90
2018-12-04T03:29:25.544Z,99.90
2018-12-04T03:31:55.821Z,99.90
2018-12-04T03:34:26.382Z,99.90
2018-12-04T03:36:56.547Z,99.90
2018-12-04T03:39:26.814Z,99.90
2018-12-04T03:41:57.252Z,99.90
2018-12-04T03:44:27.707Z,99.90
2018-12-04T03:46:57.825Z,99.90
2018-12-04T03:49:28.136Z,99.90
2018-12-04T03:51:58.585Z,99.90
2018-12-04T03:54:28.900Z,99.90
2018-12-04T03:56:59.123Z,99.90
2018-12-04T03:59:29.510Z,99.90
2018-12-04T04:01:59.957Z,99.90
2018-12-04T04:04:30.238Z,99.90
2018-12-04T04:07:00.670Z,99.90
2018-12-04T04:09:31.381Z,99.90
2018-12-04T04:12:01.640Z,99.90
2018-12-04T04:14:31.920Z,99.90
2018-12-04T04:17:02.190Z,99.90
2018-12-04T04:19:32.571Z,99.90
2018-12-04T04:22:02.950Z,99.90
2018-12-04T04:24:33.313Z,99.90
2018-12-04T04:27:03.597Z,99.90
2018-12-04T04:29:34.040Z,99.90
2018-12-04T04:32:04.450Z,99.90
2018-12-04T04:34:34.708Z,99.90
2018-12-04T04:37:04.980Z,99.90
2018-12-04T04:39:35.463Z,99.90
2018-12-04T04:42:05.602Z,99.90
2018-12-04T04:44:36.009Z,99.90
2018-12-04T04:47:06.405Z,99.90
2018-12-04T04:49:36.670Z,99.90
2018-12-04T04:52:06.985Z,99.90
2018-12-04T04:54:37.517Z,99.90
2018-12-04T04:57:07.639Z,99.90
2018-12-04T04:59:38.052Z,99.90
2018-12-04T05:02:08.323Z,99.90
2018-12-04T05:04:38.901Z,99.90
2018-12-04T05:07:09.301Z,99.90
2018-12-04T05:09:39.706Z,99.90
2018-12-04T05:12:10.067Z,99.90
2018-12-04T05:14:40.418Z,99.90
2018-12-04T05:17:11.043Z,99.90
2018-12-04T05:19:41.329Z,99.90
2018-12-04T05:22:11.626Z,99.90
2018-12-04T05:24:42.035Z,99.90
2018-12-04T05:27:13.460Z,99.90
2018-12-04T05:29:42.884Z,99.90
2018-12-04T05:32:13.119Z,99.90
2018-12-04T05:34:43.517Z,99.90
2018-12-04T05:37:13.878Z,99.90
2018-12-04T05:39:44.193Z,99.90
2018-12-04T05:42:14.546Z,99.90
2018-12-04T05:44:44.892Z,99.90
2018-12-04T05:47:15.209Z,99.90
2018-12-04T05:49:45.753Z,99.90
2018-12-04T05:52:15.908Z,99.90
2018-12-04T05:54:46.398Z,99.90
2018-12-04T05:57:17.082Z,99.90
2018-12-04T05:59:47.383Z,99.90
2018-12-04T06:02:17.581Z,99.90
2018-12-04T06:04:48.000Z,99.90
2018-12-04T06:07:18.417Z,99.90
2018-12-04T06:09:48.833Z,99.90
2018-12-04T06:12:19.167Z,99.90
2018-12-04T06:14:50.037Z,99.90
2018-12-04T06:17:20.344Z,99.90
2018-12-04T06:19:50.558Z,99.90
2018-12-04T06:22:20.936Z,99.90
2018-12-04T06:25:20.110Z,99.90
2018-12-04T06:27:48.285Z,99.90
2018-12-04T06:30:16.457Z,99.90
2018-12-04T06:32:44.690Z,99.90
2018-12-04T06:35:12.966Z,99.90
2018-12-04T06:37:41.151Z,99.90
2018-12-04T06:40:09.465Z,99.90
2018-12-04T06:42:37.637Z,99.90
2018-12-04T06:45:06.062Z,99.90
2018-12-04T06:47:34.402Z,99.90
2018-12-04T06:50:02.695Z,99.90
2018-12-04T06:52:30.873Z,99.90
2018-12-04T06:54:59.066Z,99.90
2018-12-04T06:57:27.239Z,99.90
2018-12-04T06:59:55.417Z,99.90
2018-12-04T07:02:23.808Z,99.90
2018-12-04T07:04:51.990Z,99.90
2018-12-04T07:07:20.173Z,99.90
2018-12-04T07:09:48.364Z,99.90
2018-12-04T07:12:16.538Z,99.90
2018-12-04T07:14:44.860Z,99.90
2018-12-04T07:17:13.105Z,99.90
2018-12-04T07:19:41.274Z,99.90
2018-12-04T07:22:09.452Z,99.90
2018-12-04T07:24:37.652Z,99.90
2018-12-04T07:27:05.842Z,99.90
2018-12-04T07:29:34.023Z,99.90
2018-12-04T07:32:02.291Z,99.90
2018-12-04T07:34:30.465Z,99.90
2018-12-04T07:36:58.643Z,99.90
2018-12-04T07:39:26.831Z,99.90
2018-12-04T07:41:55.010Z,99.90
2018-12-04T07:44:23.458Z,99.90
2018-12-04T07:46:51.653Z,99.90
2018-12-04T07:49:19.834Z,99.90
2018-12-04T07:51:48.022Z,99.90
2018-12-04T07:54:16.216Z,99.90
2018-12-04T07:56:44.391Z,99.90
2018-12-04T07:59:12.563Z,99.90
2018-12-04T08:01:41.009Z,99.90
2018-12-04T08:04:09.280Z,99.90
2018-12-04T08:06:37.442Z,99.90
2018-12-04T08:09:07.488Z,99.90
2018-12-04T08:11:35.689Z,99.90
2018-12-04T08:14:03.866Z,99.90
2018-12-04T08:16:32.153Z,99.90
2018-12-04T08:19:00.436Z,99.90
2018-12-04T08:21:28.669Z,99.90
2018-12-04T08:23:56.867Z,99.90
2018-12-04T08:26:25.043Z,99.90
2018-12-04T08:28:53.216Z,99.90
2018-12-04T08:31:21.555Z,99.90
2018-12-04T08:33:49.833Z,99.90
2018-12-04T08:36:18.242Z,99.90
2018-12-04T08:38:46.429Z,99.90
2018-12-04T08:41:14.593Z,99.90
2018-12-04T08:43:42.862Z,99.90
2018-12-04T08:46:11.055Z,99.90
2018-12-04T08:48:39.230Z,99.90
2018-12-04T08:51:07.408Z,99.90
2018-12-04T08:53:35.739Z,99.90
2018-12-04T08:56:03.916Z,99.90
2018-12-04T08:58:32.085Z,99.90
2018-12-04T09:01:01.276Z,99.90
2018-12-04T09:03:29.779Z,99.90
2018-12-04T09:05:58.230Z,99.90
2018-12-04T09:08:26.816Z,99.90
2018-12-04T09:10:55.327Z,99.90
2018-12-04T09:13:23.505Z,99.90
2018-12-04T09:15:51.700Z,99.90
2018-12-04T09:18:19.909Z,99.90
2018-12-04T09:20:48.214Z,99.90
2018-12-04T09:23:16.415Z,99.90
2018-12-04T09:25:44.818Z,99.90
2018-12-04T09:28:13.134Z,99.90
2018-12-04T09:30:41.839Z,99.90
2018-12-04T09:33:10.249Z,99.90
2018-12-04T09:35:38.550Z,99.90
2018-12-04T09:38:06.809Z,99.90
2018-12-04T09:40:35.000Z,99.90
2018-12-04T09:43:04.231Z,99.90
2018-12-04T09:45:32.800Z,99.90
2018-12-04T09:48:00.998Z,99.90
2018-12-04T09:50:29.179Z,99.90
2018-12-04T09:52:57.386Z,99.90
2018-12-04T09:55:25.574Z,99.90
2018-12-04T09:57:53.834Z,99.90
2018-12-04T10:00:22.354Z,99.90
2018-12-04T10:02:50.547Z,99.90
2018-12-04T10:05:18.840Z,99.90
2018-12-04T10:07:47.269Z,99.90
2018-12-04T10:10:15.471Z,99.90
2018-12-04T10:12:43.685Z,99.90
2018-12-04T10:15:11.984Z,99.90
2018-12-04T10:17:40.173Z,99.90
2018-12-04T10:20:09.759Z,99.90
2018-12-04T10:22:38.110Z,99.90
2018-12-04T10:25:06.292Z,99.90
2018-12-04T10:27:34.480Z,99.90
2018-12-04T10:30:03.156Z,99.90
2018-12-04T10:32:31.326Z,99.90
2018-12-04T10:34:59.513Z,99.90
2018-12-04T10:37:27.732Z,98.00
2018-12-04T10:39:55.933Z,84.40
2018-12-04T10:42:24.109Z,70.40
2018-12-04T10:44:52.313Z,60.80
2018-12-04T10:47:20.490Z,51.90
2018-12-04T10:49:48.840Z,48.70
2018-12-04T10:52:17.703Z,46.60
2018-12-04T10:54:45.879Z,44.30
2018-12-04T10:57:14.093Z,42.70
2018-12-04T10:59:42.311Z,41.60
2018-12-04T11:02:16.000Z,39.90
2018-12-04T11:04:44.209Z,38.60
2018-12-04T11:07:12.406Z,38.10
2018-12-04T11:09:40.686Z,36.90
2018-12-04T11:12:12.282Z,36.50
2018-12-04T11:14:39.115Z,37.30
2018-12-04T11:17:07.325Z,37.20
2018-12-04T11:19:35.573Z,38.70
2018-12-04T11:22:03.779Z,39.70
2018-12-04T11:24:31.952Z,42.00
2018-12-04T11:27:00.305Z,41.40
2018-12-04T11:29:28.637Z,41.70
2018-12-04T11:31:56.844Z,39.30
2018-12-04T11:34:25.053Z,37.20
2018-12-04T11:36:53.263Z,35.50
2018-12-04T11:39:21.454Z,34.60
2018-12-04T11:41:49.939Z,34.40
2018-12-04T11:44:18.236Z,32.50
2018-12-04T11:46:46.442Z,31.90
2018-12-04T11:49:14.747Z,31.50
2018-12-04T11:51:43.164Z,31.50
2018-12-04T11:54:11.354Z,30.90
2018-12-04T11:56:40.212Z,30.70
2018-12-04T11:59:08.395Z,30.80
2018-12-04T12:01:36.752Z,30.60
2018-12-04T12:04:04.947Z,30.00
2018-12-04T12:06:33.328Z,29.80
2018-12-04T12:09:01.664Z,29.70
2018-12-04T12:11:29.987Z,29.60
2018-12-04T12:13:58.164Z,30.00
2018-12-04T12:16:26.680Z,29.70
2018-12-04T12:18:54.888Z,30.00
2018-12-04T12:21:23.085Z,29.90
2018-12-04T12:23:51.275Z,29.60
2018-12-04T12:26:19.618Z,29.00
2018-12-04T12:28:47.945Z,30.60
2018-12-04T12:31:16.133Z,34.00
2018-12-04T12:33:44.440Z,33.90
2018-12-04T12:36:12.633Z,32.90
2018-12-04T12:38:40.826Z,31.30
2018-12-04T12:41:09.035Z,29.90
2018-12-04T12:43:37.349Z,28.60
2018-12-04T12:46:05.551Z,29.50
2018-12-04T12:48:33.772Z,31.00
2018-12-04T12:51:01.975Z,33.50
2018-12-04T12:53:30.176Z,34.50
2018-12-04T12:55:58.423Z,37.10
2018-12-04T12:58:26.742Z,37.30
2018-12-04T13:00:55.083Z,39.20
2018-12-04T13:03:23.430Z,40.20
2018-12-04T13:05:52.070Z,36.10
2018-12-04T13:08:20.256Z,34.30
2018-12-04T13:10:48.518Z,34.60
2018-12-04T13:13:16.881Z,35.10
2018-12-04T13:15:45.086Z,34.10
2018-12-04T13:18:13.325Z,34.60
2018-12-04T13:20:41.534Z,38.30
2018-12-04T13:23:09.729Z,40.00
2018-12-04T13:25:37.961Z,38.90
2018-12-04T13:28:06.142Z,40.80
2018-12-04T13:30:34.348Z,41.80
2018-12-04T13:33:02.592Z,44.50
2018-12-04T13:35:30.788Z,47.30
2018-12-04T13:37:58.987Z,48.10
2018-12-04T13:40:27.370Z,49.20
2018-12-04T13:42:55.576Z,49.90
2018-12-04T13:45:24.352Z,50.40
2018-12-04T13:47:52.563Z,51.20
2018-12-04T13:50:20.923Z,51.80
2018-12-04T13:52:49.108Z,52.70
2018-12-04T13:55:17.345Z,53.40
2018-12-04T13:57:50.698Z,53.50
2018-12-04T14:00:15.764Z,53.90
2018-12-04T14:02:44.152Z,54.00
2018-12-04T14:05:12.344Z,53.80
2018-12-04T14:07:40.555Z,51.90
2018-12-04T14:10:08.881Z,50.30
2018-12-04T14:12:37.297Z,47.40
2018-12-04T14:15:05.663Z,45.20
2018-12-04T14:17:33.981Z,45.40
2018-12-04T14:20:02.604Z,45.90
2018-12-04T14:22:30.784Z,46.70
2018-12-04T14:24:58.989Z,46.60
2018-12-04T14:27:27.305Z,47.50
2018-12-04T14:29:55.615Z,48.50
2018-12-04T14:32:23.916Z,48.90
2018-12-04T14:34:52.110Z,49.40
2018-12-04T14:37:20.394Z,50.00
2018-12-04T14:39:48.604Z,50.70
2018-12-04T14:42:16.780Z,51.70
2018-12-04T14:44:44.972Z,52.90
2018-12-04T14:47:13.285Z,53.90
2018-12-04T14:49:41.596Z,54.90
2018-12-04T14:52:09.875Z,55.70
2018-12-04T14:54:38.097Z,56.40
2018-12-04T14:57:06.460Z,57.30
2018-12-04T14:59:34.789Z,57.80
2018-12-04T15:02:03.010Z,58.50
2018-12-04T15:04:31.206Z,58.90
2018-12-04T15:06:59.462Z,59.80
2018-12-04T15:09:27.720Z,60.10
2018-12-04T15:11:56.105Z,60.60
2018-12-04T15:14:24.291Z,61.70
2018-12-04T15:16:55.139Z,62.30
2018-12-04T15:19:22.707Z,63.50
2018-12-04T15:21:50.890Z,63.80
2018-12-04T15:24:19.151Z,65.00
2018-12-04T15:26:47.456Z,66.00
2018-12-04T15:29:15.767Z,66.80
2018-12-04T15:31:44.096Z,67.20
2018-12-04T15:34:12.391Z,68.00
2018-12-04T15:36:40.722Z,68.40
2018-12-04T15:39:09.040Z,69.20
2018-12-04T15:41:37.362Z,69.80
2018-12-04T15:44:05.623Z,70.30
2018-12-04T15:46:33.959Z,70.60
2018-12-04T15:49:02.277Z,70.70
2018-12-04T15:51:30.553Z,71.30
2018-12-04T15:53:58.788Z,71.80
2018-12-04T15:56:27.037Z,72.30
2018-12-04T15:58:55.212Z,72.90
2018-12-04T16:01:23.413Z,73.50
2018-12-04T16:03:51.719Z,74.00
2018-12-04T16:06:19.916Z,74.70
2018-12-04T16:08:48.131Z,75.40
2018-12-04T16:11:16.334Z,75.90
2018-12-04T16:13:44.511Z,76.70
2018-12-04T16:16:12.712Z,77.00
2018-12-04T16:18:41.318Z,77.70
2018-12-04T16:21:09.486Z,77.80
2018-12-04T16:23:37.688Z,78.50
2018-12-04T16:26:05.860Z,79.30
2018-12-04T16:28:34.032Z,80.00
2018-12-04T16:31:02.413Z,81.30
2018-12-04T16:33:30.595Z,81.80
2018-12-04T16:35:58.784Z,82.50
2018-12-04T16:38:26.969Z,83.00
2018-12-04T16:40:55.206Z,84.00
2018-12-04T16:43:23.385Z,84.70
2018-12-04T16:45:51.692Z,85.30
2018-12-04T16:48:19.881Z,85.70
2018-12-04T16:50:48.064Z,87.30
2018-12-04T16:53:16.364Z,87.00
2018-12-04T16:55:44.540Z,87.10
2018-12-04T16:58:12.963Z,87.20
2018-12-04T17:00:41.178Z,87.60
2018-12-04T17:03:09.374Z,88.30
2018-12-04T17:05:37.647Z,88.70
2018-12-04T17:08:05.878Z,89.40
2018-12-04T17:10:34.063Z,89.80
2018-12-04T17:13:02.238Z,90.10
2018-12-04T17:15:30.564Z,90.40
2018-12-04T17:17:58.812Z,90.60
2018-12-04T17:20:26.998Z,90.90
2018-12-04T17:22:55.198Z,91.00
2018-12-04T17:25:23.393Z,91.30
2018-12-04T17:27:51.586Z,91.60
2018-12-04T17:30:20.147Z,92.20
2018-12-04T17:32:49.207Z,92.90
2018-12-04T17:35:17.520Z,93.40
2018-12-04T17:37:45.864Z,94.00
2018-12-04T17:40:14.134Z,94.50
2018-12-04T17:42:42.318Z,95.30
2018-12-04T17:45:10.546Z,96.00
2018-12-04T17:47:38.742Z,96.70
2018-12-04T17:50:06.913Z,97.30
2018-12-04T17:52:35.118Z,97.80
2018-12-04T17:55:03.467Z,98.30
2018-12-04T17:57:31.681Z,99.10
2018-12-04T17:59:59.918Z,99.90
2018-12-04T18:02:28.270Z,99.90
2018-12-04T18:04:56.528Z,99.90
2018-12-04T18:07:24.749Z,99.90
2018-12-04T18:09:52.923Z,99.90
2018-12-04T18:12:21.103Z,99.90
2018-12-04T18:14:49.424Z,99.90
2018-12-04T18:17:17.604Z,99.90
2018-12-04T18:19:45.772Z,99.90
2018-12-04T18:22:14.105Z,99.90
2018-12-04T18:24:42.292Z,99.90
2018-12-04T18:27:10.456Z,99.90
2018-12-04T18:29:38.681Z,99.90
2018-12-04T18:32:06.851Z,99.90
2018-12-04T18:34:35.202Z,99.90
2018-12-04T18:37:03.404Z,99.90
2018-12-04T18:39:31.559Z,99.90
2018-12-04T18:41:59.758Z,99.90
2018-12-04T18:44:28.063Z,99.90
2018-12-04T18:46:56.243Z,99.90
2018-12-04T18:49:24.510Z,99.90
2018-12-04T18:51:52.768Z,99.90
2018-12-04T18:54:20.937Z,99.90
2018-12-04T18:56:49.130Z,99.90
2018-12-04T18:59:17.337Z,99.90
2018-12-04T19:01:45.506Z,99.90
2018-12-04T19:04:13.687Z,99.90
2018-12-04T19:06:41.873Z,99.90
2018-12-04T19:09:10.044Z,99.90
2018-12-04T19:11:38.968Z,99.90
2018-12-04T19:14:07.380Z,99.90
2018-12-04T19:16:35.562Z,99.90
2018-12-04T19:19:03.796Z,99.90
2018-12-04T19:21:32.001Z,99.90
2018-12-04T19:24:00.270Z,99.90
2018-12-04T19:26:28.472Z,99.90
2018-12-04T19:28:56.694Z,99.90
2018-12-04T19:31:24.869Z,99.90
2018-12-04T19:33:53.034Z,99.90
2018-12-04T19:36:21.270Z,99.90
2018-12-04T19:38:49.471Z,99.90
2018-12-04T19:41:17.641Z,99.90
2018-12-04T19:43:45.945Z,99.90
2018-12-04T19:46:14.115Z,99.90
2018-12-04T19:48:42.291Z,99.90
2018-12-04T19:51:10.513Z,99.90
2018-12-04T19:53:39.109Z,99.90
2018-12-04T19:56:07.294Z,99.90
2018-12-04T19:58:35.509Z,99.90
2018-12-04T20:01:03.761Z,99.90
2018-12-04T20:03:31.945Z,99.90
2018-12-04T20:06:00.321Z,99.90
2018-12-04T20:08:30.521Z,99.90
2018-12-04T20:10:58.694Z,99.90
2018-12-04T20:13:26.955Z,99.90
2018-12-04T20:15:55.145Z,99.90
2018-12-04T20:18:23.334Z,99.90
2018-12-04T20:20:51.566Z,99.90
2018-12-04T20:23:19.735Z,99.90
2018-12-04T20:25:47.918Z,99.90
2018-12-04T20:28:16.278Z,99.90
2018-12-04T20:30:44.545Z,99.90
2018-12-04T20:33:12.738Z,99.90
2018-12-04T20:35:40.995Z,99.90
2018-12-04T20:38:09.174Z,99.90
2018-12-04T20:40:37.345Z,99.90
2018-12-04T20:43:05.551Z,99.90
2018-12-04T20:45:33.721Z,99.90
2018-12-04T20:48:01.893Z,99.90
2018-12-04T20:50:30.136Z,99.90
2018-12-04T20:52:58.301Z,99.90
2018-12-04T20:55:26.563Z,99.90
2018-12-04T20:57:54.752Z,99.90
2018-12-04T21:00:22.910Z,99.90
2018-12-04T21:02:51.169Z,99.90
2018-12-04T21:05:19.373Z,99.90
2018-12-04T21:07:47.536Z,99.90
2018-12-04T21:10:15.830Z,99.90
2018-12-04T21:12:44.029Z,99.90
2018-12-04T21:15:12.199Z,99.90
2018-12-04T21:17:40.379Z,99.90
2018-12-04T21:20:08.598Z,99.90
2018-12-04T21:22:36.788Z,99.90
2018-12-04T21:25:05.390Z,99.90
2018-12-04T21:27:39.420Z,99.90
2018-12-04T21:30:13.272Z,99.90
2018-12-04T21:32:47.071Z,99.90
2018-12-04T21:35:20.858Z,99.90
2018-12-04T21:37:54.587Z,99.90
2018-12-04T21:40:28.219Z,99.90
2018-12-04T21:43:01.887Z,99.90
2018-12-04T21:45:35.643Z,99.90
2018-12-04T21:48:04.612Z,99.90
2018-12-04T21:50:32.783Z,99.90
2018-12-04T21:53:00.960Z,99.90
2018-12-04T21:55:29.163Z,99.90
2018-12-04T21:57:57.346Z,99.90
2018-12-04T22:00:26.426Z,99.90
2018-12-04T22:02:54.678Z,99.90
2018-12-04T22:05:22.861Z,99.90
2018-12-04T22:07:51.044Z,99.90
2018-12-04T22:10:19.233Z,99.90
2018-12-04T22:12:47.407Z,99.90
2018-12-04T22:15:15.655Z,99.90
2018-12-04T22:17:44.147Z,99.90
2018-12-04T22:20:12.321Z,99.90
2018-12-04T22:22:40.489Z,99.90
2018-12-04T22:25:08.694Z,99.90
2018-12-04T22:27:36.869Z,99.90
2018-12-04T22:30:07.681Z,99.90
2018-12-04T22:32:36.027Z,99.90
2018-12-04T22:35:04.210Z,99.90
2018-12-04T22:37:32.496Z,99.90
2018-12-04T22:40:00.719Z,99.90
2018-12-04T22:42:29.002Z,99.90
2018-12-04T22:44:59.203Z,99.90
2018-12-04T22:47:27.394Z,99.90
2018-12-04T22:49:55.573Z,99.90
2018-12-04T22:52:23.824Z,99.90
2018-12-04T22:54:52.028Z,99.90
2018-12-04T22:57:20.198Z,99.90
2018-12-04T22:59:48.377Z,99.90
2018-12-04T23:02:16.623Z,99.90
2018-12-04T23:04:44.793Z,99.90
2018-12-04T23:07:12.972Z,99.90
2018-12-04T23:09:41.164Z,99.90
2018-12-04T23:12:09.502Z,99.90
2018-12-04T23:14:37.875Z,99.90
2018-12-04T23:17:06.083Z,99.90
2018-12-04T23:19:34.757Z,99.90
2018-12-04T23:22:02.917Z,99.90
2018-12-04T23:24:31.124Z,99.90
2018-12-04T23:26:59.309Z,99.90
2018-12-04T23:29:27.482Z,99.90
2018-12-04T23:31:55.740Z,99.90
2018-12-04T23:34:23.906Z,99.90
2018-12-04T23:36:52.064Z,99.90
2018-12-04T23:39:20.256Z,99.90
2018-12-04T23:41:48.518Z,99.90
2018-12-04T23:44:16.683Z,99.90
2018-12-04T23:46:44.915Z,99.90
2018-12-04T23:49:13.099Z,99.90
2018-12-04T23:51:41.273Z,99.90
2018-12-04T23:54:09.502Z,99.90
2018-12-04T23:56:37.881Z,99.90
2018-12-04T23:59:06.047Z,99.90
